createdAt,value
2018-08-24T00:00:21.497Z,18.97
2018-08-24T00:02:50.457Z,19.07
2018-08-24T00:05:19.397Z,19.57
2018-08-24T00:07:48.659Z,18.80
2018-08-24T00:10:17.557Z,19.27
2018-08-24T00:12:46.458Z,18.23
2018-08-24T00:15:17.159Z,19.17
2018-08-24T00:17:48.519Z,18.40
2018-08-24T00:20:17.517Z,18.97
2018-08-24T00:22:46.757Z,18.60
2018-08-24T00:25:15.557Z,18.93
2018-08-24T00:27:44.577Z,18.90
2018-08-24T00:30:13.797Z,19.80
2018-08-24T00:32:42.921Z,19.23
2018-08-24T00:35:11.857Z,18.53
2018-08-24T00:37:40.737Z,18.30
2018-08-24T00:40:09.958Z,18.90
2018-08-24T00:42:38.815Z,20.23
2018-08-24T00:45:07.600Z,20.23
2018-08-24T00:47:36.947Z,19.77
2018-08-24T00:50:05.802Z,18.63
2018-08-24T00:52:35.097Z,19.13
2018-08-24T00:55:04.038Z,20.53
2018-08-24T00:57:33.317Z,20.50
2018-08-24T01:00:02.201Z,18.83
2018-08-24T01:02:31.399Z,19.63
2018-08-24T01:05:00.849Z,19.93
2018-08-24T01:07:29.910Z,19.40
2018-08-24T01:10:02.939Z,19.10
2018-08-24T01:12:32.160Z,20.07
2018-08-24T01:15:02.639Z,20.70
2018-08-24T01:17:36.999Z,20.23
2018-08-24T01:20:06.039Z,19.53
2018-08-24T01:22:34.818Z,19.80
2018-08-24T01:25:04.639Z,18.67
2018-08-24T01:27:33.779Z,19.77
2018-08-24T01:30:03.079Z,19.77
2018-08-24T01:32:32.599Z,20.37
2018-08-24T01:35:01.639Z,19.90
2018-08-24T01:37:30.602Z,19.20
2018-08-24T01:40:01.642Z,19.73
2018-08-24T01:42:30.440Z,19.50
2018-08-24T01:44:59.400Z,19.43
2018-08-24T01:47:28.706Z,20.63
2018-08-24T01:49:57.998Z,20.27
2018-08-24T01:52:26.920Z,19.57
2018-08-24T01:54:55.978Z,20.67
2018-08-24T01:57:24.719Z,21.37
2018-08-24T01:59:53.838Z,20.77
2018-08-24T02:02:22.655Z,20.70
2018-08-24T02:04:51.535Z,19.43
2018-08-24T02:07:21.315Z,19.87
2018-08-24T02:09:50.776Z,20.63
2018-08-24T02:12:25.316Z,20.57
2018-08-24T02:14:54.115Z,21.40
2018-08-24T02:17:28.196Z,20.57
2018-08-24T02:20:02.556Z,20.13
2018-08-24T02:22:31.538Z,20.37
2018-08-24T02:25:00.395Z,21.00
2018-08-24T02:27:29.495Z,21.00
2018-08-24T02:29:59.076Z,20.70
2018-08-24T02:32:27.875Z,20.47
2018-08-24T02:34:59.715Z,21.33
2018-08-24T02:37:30.015Z,21.60
2018-08-24T02:39:58.896Z,20.47
2018-08-24T02:42:27.958Z,22.20
2018-08-24T02:44:57.117Z,21.83
2018-08-24T02:47:26.037Z,21.83
2018-08-24T02:49:55.215Z,21.13
2018-08-24T02:52:24.295Z,20.53
2018-08-24T02:54:53.475Z,21.10
2018-08-24T02:57:22.476Z,20.43
2018-08-24T02:59:51.717Z,20.93
2018-08-24T03:02:20.518Z,19.90
2018-08-24T03:04:49.319Z,21.87
2018-08-24T03:07:19.036Z,21.17
2018-08-24T03:09:48.197Z,20.67
2018-08-24T03:12:17.457Z,20.90
2018-08-24T03:14:46.436Z,20.70
2018-08-24T03:17:20.500Z,21.30
2018-08-24T03:19:49.446Z,19.80
2018-08-24T03:22:18.416Z,21.03
2018-08-24T03:24:48.038Z,21.13
2018-08-24T03:27:17.021Z,20.43
2018-08-24T03:29:45.842Z,21.37
2018-08-24T03:32:14.759Z,20.87
2018-08-24T03:34:43.697Z,20.57
2018-08-24T03:37:12.877Z,20.77
2018-08-24T03:39:42.017Z,21.67
2018-08-24T03:42:15.357Z,21.07
2018-08-24T03:44:44.478Z,21.47
2018-08-24T03:47:13.637Z,21.00
2018-08-24T03:49:42.597Z,20.17
2018-08-24T03:52:11.565Z,21.40
2018-08-24T03:54:40.357Z,21.00
2018-08-24T03:57:09.487Z,20.77
2018-08-24T03:59:38.438Z,20.27
2018-08-24T04:02:11.540Z,21.33
2018-08-24T04:04:41.342Z,21.27
2018-08-24T04:07:10.199Z,22.03
2018-08-24T04:09:38.919Z,20.80
2018-08-24T04:12:07.799Z,21.53
2018-08-24T04:14:36.841Z,21.83
2018-08-24T04:17:11.400Z,22.40
2018-08-24T04:19:40.380Z,21.63
2018-08-24T04:22:09.319Z,21.13
2018-08-24T04:24:38.620Z,21.20
2018-08-24T04:27:07.619Z,21.70
2018-08-24T04:29:36.561Z,20.20
2018-08-24T04:32:05.842Z,21.27
2018-08-24T04:34:34.799Z,21.63
2018-08-24T04:37:03.859Z,20.90
2018-08-24T04:39:32.739Z,21.77
2018-08-24T04:42:01.520Z,20.70
2018-08-24T04:44:30.439Z,20.50
2018-08-24T04:47:03.401Z,19.30
2018-08-24T04:49:32.281Z,20.30
2018-08-24T04:52:01.182Z,19.97
2018-08-24T04:54:30.159Z,19.07
2018-08-24T04:57:04.039Z,19.73
2018-08-24T04:59:33.022Z,19.20
2018-08-24T05:02:01.955Z,18.20
2018-08-24T05:04:31.395Z,18.60
2018-08-24T05:07:00.215Z,19.17
2018-08-24T05:09:29.035Z,18.87
2018-08-24T05:11:57.976Z,19.10
2018-08-24T05:14:26.835Z,18.00
2018-08-24T05:16:55.555Z,18.00
2018-08-24T05:19:24.255Z,18.30
2018-08-24T05:21:53.323Z,18.12
2018-08-24T05:24:22.115Z,17.80
2018-08-24T05:34:15.316Z,17.10
2018-08-24T05:36:44.075Z,17.77
2018-08-24T05:39:13.195Z,17.67
2018-08-24T05:41:42.135Z,17.48
2018-08-24T05:44:11.175Z,16.93
2018-08-24T05:46:40.356Z,17.67
2018-08-24T05:49:09.155Z,17.87
2018-08-24T05:51:37.895Z,17.35
2018-08-24T05:54:06.775Z,16.77
2018-08-24T05:56:35.675Z,16.85
2018-08-24T05:59:09.416Z,15.88
2018-08-24T06:01:38.487Z,17.10
2018-08-24T06:04:07.397Z,16.42
2018-08-24T06:06:36.518Z,15.63
2018-08-24T06:09:13.978Z,16.27
2018-08-24T06:11:43.716Z,15.63
2018-08-24T06:14:13.936Z,16.20
2018-08-24T06:16:48.447Z,15.35
2018-08-24T06:19:21.638Z,16.55
2018-08-24T06:21:51.039Z,16.25
2018-08-24T06:24:19.925Z,15.25
2018-08-24T06:26:49.956Z,16.10
2018-08-24T06:29:19.076Z,15.60
2018-08-24T06:31:48.397Z,16.17
2018-08-24T06:34:17.297Z,15.85
2018-08-24T06:36:46.121Z,15.58
2018-08-24T06:39:15.377Z,16.27
2018-08-24T06:41:44.630Z,16.02
2018-08-24T06:44:13.747Z,16.80
2018-08-24T06:46:42.646Z,15.50
2018-08-24T06:49:11.589Z,15.40
2018-08-24T06:51:40.625Z,15.53
2018-08-24T06:54:09.615Z,15.48
2018-08-24T06:56:38.666Z,14.93
2018-08-24T06:59:07.846Z,16.02
2018-08-24T07:01:37.257Z,15.93
2018-08-24T07:04:06.217Z,16.85
2018-08-24T07:06:36.517Z,17.05
2018-08-24T07:09:06.657Z,17.65
2018-08-24T07:11:35.718Z,17.17
2018-08-24T07:14:04.739Z,18.42
2018-08-24T07:16:33.638Z,17.52
2018-08-24T07:19:02.757Z,18.25
2018-08-24T07:21:31.956Z,17.92
2018-08-24T07:24:00.876Z,16.40
2018-08-24T07:26:29.736Z,16.75
2018-08-24T07:28:58.516Z,15.53
2018-08-24T07:31:27.577Z,16.02
2018-08-24T07:33:56.837Z,15.65
2018-08-24T07:36:25.527Z,15.50
2018-08-24T07:38:54.356Z,15.05
2018-08-24T07:41:23.307Z,14.60
2018-08-24T07:43:52.357Z,15.28
2018-08-24T07:46:21.157Z,13.85
2018-08-24T07:48:50.118Z,15.53
2018-08-24T07:51:18.977Z,14.35
2018-08-24T07:53:48.497Z,14.75
2018-08-24T07:56:17.564Z,14.07
2018-08-24T07:58:46.467Z,14.33
2018-08-24T08:01:15.379Z,14.23
2018-08-24T08:03:44.494Z,14.50
2018-08-24T08:06:13.481Z,13.38
2018-08-24T08:08:42.438Z,14.50
2018-08-24T08:11:11.579Z,14.93
2018-08-24T08:13:40.526Z,14.78
2018-08-24T08:16:09.321Z,13.75
2018-08-24T08:18:38.388Z,14.90
2018-08-24T08:21:07.239Z,14.83
2018-08-24T08:23:36.199Z,14.43
2018-08-24T08:26:05.242Z,14.70
2018-08-24T08:28:34.401Z,15.10
2018-08-24T08:31:03.398Z,15.70
2018-08-24T08:33:32.298Z,16.45
2018-08-24T08:36:01.339Z,17.02
2018-08-24T08:38:30.219Z,16.75
2018-08-24T08:40:59.238Z,18.07
2018-08-24T08:43:28.139Z,18.55
2018-08-24T08:45:56.879Z,18.30
2018-08-24T08:48:25.808Z,17.82
2018-08-24T08:50:54.679Z,16.62
2018-08-24T08:53:23.880Z,18.75
2018-08-24T08:55:53.219Z,18.42
2018-08-24T08:58:22.438Z,19.15
2018-08-24T09:00:51.460Z,17.77
2018-08-24T09:03:20.362Z,18.40
2018-08-24T09:05:49.801Z,18.32
2018-08-24T09:08:19.101Z,19.20
2018-08-24T09:10:48.100Z,19.30
2018-08-24T09:13:17.481Z,18.77
2018-08-24T09:15:46.289Z,19.35
2018-08-24T09:18:20.424Z,19.73
2018-08-24T09:22:58.928Z,19.00
2018-08-24T09:25:33.154Z,20.25
2018-08-24T09:28:07.341Z,19.25
2018-08-24T09:30:40.043Z,19.42
2018-08-24T09:33:08.981Z,20.90
2018-08-24T09:35:38.239Z,21.20
2018-08-24T09:38:07.080Z,19.57
2018-08-24T09:40:41.321Z,19.87
2018-08-24T09:43:15.388Z,20.30
2018-08-24T09:45:44.359Z,20.00
2018-08-24T09:48:18.620Z,20.32
2018-08-24T09:50:57.359Z,19.77
2018-08-24T09:53:31.540Z,20.75
2018-08-24T09:56:01.103Z,19.45
2018-08-24T09:58:30.360Z,19.35
2018-08-24T10:01:04.529Z,19.15
2018-08-24T10:03:38.558Z,19.30
2018-08-24T10:06:12.852Z,19.65
2018-08-24T10:08:46.758Z,20.30
2018-08-24T10:11:15.582Z,20.25
2018-08-24T10:13:49.161Z,18.30
2018-08-24T10:16:18.119Z,19.42
2018-08-24T10:18:46.921Z,19.35
2018-08-24T10:21:16.101Z,18.65
2018-08-24T10:26:18.419Z,17.75
2018-08-24T10:28:47.380Z,17.40
2018-08-24T10:31:16.359Z,18.23
2018-08-24T10:36:13.399Z,18.73
2018-08-24T10:38:42.219Z,18.20
2018-08-24T10:41:11.979Z,18.27
2018-08-24T10:43:40.819Z,19.75
2018-08-24T10:46:09.657Z,19.27
2018-08-24T10:48:38.577Z,17.57
2018-08-24T10:51:07.439Z,17.85
2018-08-24T10:56:10.928Z,15.32
2018-08-24T10:58:39.897Z,16.55
2018-08-24T11:01:09.163Z,16.85
2018-08-24T11:03:38.117Z,16.05
2018-08-24T11:06:07.082Z,16.95
2018-08-24T11:08:40.182Z,15.88
2018-08-24T11:11:09.122Z,16.73
2018-08-24T11:13:38.268Z,17.42
2018-08-24T11:16:07.089Z,17.30
2018-08-24T11:18:36.501Z,17.65
2018-08-24T11:21:05.322Z,16.97
2018-08-24T11:23:34.441Z,17.05
2018-08-24T11:26:03.273Z,17.12
2018-08-24T11:28:32.244Z,17.55
2018-08-24T11:31:01.431Z,16.73
2018-08-24T11:33:30.221Z,16.85
2018-08-24T11:35:59.419Z,16.55
2018-08-24T11:38:28.543Z,17.25
2018-08-24T11:40:57.564Z,17.30
2018-08-24T11:43:26.482Z,15.55
2018-08-24T11:45:55.282Z,14.95
2018-08-24T11:48:24.542Z,14.60
2018-08-24T11:50:53.482Z,14.80
2018-08-24T11:53:22.322Z,15.90
2018-08-24T11:55:51.364Z,15.32
2018-08-24T11:58:20.141Z,16.15
2018-08-24T12:00:49.012Z,16.65
2018-08-24T12:03:17.761Z,16.93
2018-08-24T12:05:46.499Z,19.10
2018-08-24T12:08:15.405Z,18.30
2018-08-24T12:10:44.358Z,18.97
2018-08-24T12:13:13.300Z,19.67
2018-08-24T12:15:42.180Z,18.77
2018-08-24T12:18:11.094Z,19.97
2018-08-24T12:20:39.770Z,19.07
2018-08-24T12:23:08.358Z,19.93
2018-08-24T12:25:37.067Z,20.00
2018-08-24T12:28:05.762Z,21.00
2018-08-24T12:30:34.602Z,20.77
2018-08-24T12:33:03.603Z,20.07
2018-08-24T12:35:32.680Z,19.70
2018-08-24T12:38:01.650Z,19.50
2018-08-24T12:40:30.900Z,18.10
2018-08-24T12:42:59.920Z,17.70
2018-08-24T12:45:28.820Z,17.23
2018-08-24T12:47:57.879Z,16.40
2018-08-24T12:50:26.919Z,16.70
2018-08-24T12:52:55.720Z,17.50
2018-08-24T12:55:24.660Z,16.17
2018-08-24T12:57:53.699Z,16.43
2018-08-24T13:00:23.253Z,16.90
2018-08-24T13:02:52.222Z,14.93
2018-08-24T13:05:21.381Z,16.60
2018-08-24T13:07:50.642Z,15.53
2018-08-24T13:10:19.822Z,16.20
2018-08-24T13:12:48.903Z,14.53
2018-08-24T13:15:17.838Z,15.57
2018-08-24T13:17:46.781Z,15.33
2018-08-24T13:20:15.822Z,14.30
2018-08-24T13:22:44.844Z,15.47
2018-08-24T13:25:14.101Z,13.87
2018-08-24T13:27:43.122Z,14.10
2018-08-24T13:30:12.181Z,13.93
2018-08-24T13:32:41.864Z,13.90
2018-08-24T13:35:10.982Z,13.93
2018-08-24T13:37:44.361Z,12.93
2018-08-24T13:40:13.282Z,12.60
2018-08-24T13:42:42.640Z,13.27
2018-08-24T13:47:44.682Z,14.17
2018-08-24T13:50:14.123Z,13.47
2018-08-24T13:52:43.221Z,14.47
2018-08-24T13:55:12.160Z,14.00
2018-08-24T13:57:41.158Z,13.27
2018-08-24T14:00:10.139Z,13.17
2018-08-24T14:02:39.041Z,11.50
2018-08-24T14:05:08.083Z,12.53
2018-08-24T14:07:37.022Z,12.40
2018-08-24T14:10:06.002Z,11.93
2018-08-24T14:12:34.983Z,12.10
2018-08-24T14:15:03.757Z,12.33
2018-08-24T14:17:32.603Z,12.93
2018-08-24T14:20:01.443Z,13.23
2018-08-24T14:22:30.922Z,13.00
2018-08-24T14:24:59.882Z,13.07
2018-08-24T14:27:28.722Z,13.17
2018-08-24T14:29:57.561Z,13.00
2018-08-24T14:32:26.543Z,13.07
2018-08-24T14:34:55.600Z,13.03
2018-08-24T14:37:24.526Z,12.63
2018-08-24T14:39:53.459Z,12.40
2018-08-24T14:42:22.939Z,12.93
2018-08-24T14:44:51.959Z,12.37
2018-08-24T14:47:20.826Z,12.60
2018-08-24T14:49:49.718Z,13.50
2018-08-24T14:52:18.619Z,14.07
2018-08-24T14:54:47.758Z,13.13
2018-08-24T14:57:16.840Z,13.13
2018-08-24T14:59:46.040Z,13.57
2018-08-24T15:02:15.008Z,14.10
2018-08-24T15:04:43.944Z,23.30
2018-08-24T15:07:17.578Z,14.83
2018-08-24T15:17:12.179Z,15.43
2018-08-24T15:19:41.479Z,15.40
2018-08-24T15:22:10.915Z,14.93
2018-08-24T15:24:44.239Z,16.13
2018-08-24T15:27:13.558Z,15.53
2018-08-24T15:29:43.683Z,16.27
2018-08-24T15:32:13.080Z,16.40
2018-08-24T15:34:42.439Z,16.93
2018-08-24T15:37:12.179Z,16.17
2018-08-24T15:39:41.799Z,16.57
2018-08-24T15:42:11.478Z,16.20
2018-08-24T15:44:41.118Z,16.10
2018-08-24T15:47:10.778Z,16.43
2018-08-24T15:49:40.199Z,17.07
2018-08-24T15:52:09.958Z,17.63
2018-08-24T15:54:39.368Z,17.73
2018-08-24T15:59:42.403Z,16.53
2018-08-24T16:02:11.678Z,16.23
2018-08-24T16:04:41.239Z,17.00
2018-08-24T16:07:10.038Z,16.77
2018-08-24T16:09:39.059Z,17.17
2018-08-24T16:12:07.909Z,18.07
2018-08-24T16:14:36.657Z,18.27
2018-08-24T16:17:05.376Z,18.47
2018-08-24T16:19:34.076Z,18.90
2018-08-24T16:22:03.592Z,17.90
2018-08-24T16:24:32.790Z,19.60
2018-08-24T16:27:01.444Z,18.40
2018-08-24T16:29:30.463Z,19.33
2018-08-24T16:31:59.116Z,19.73
2018-08-24T16:34:28.063Z,19.20
2018-08-24T16:36:57.368Z,20.03
2018-08-24T16:39:26.228Z,20.13
2018-08-24T16:41:54.975Z,20.90
2018-08-24T16:44:24.723Z,19.87
2018-08-24T16:46:53.445Z,19.63
2018-08-24T16:49:22.138Z,19.07
2018-08-24T16:51:50.948Z,18.70
2018-08-24T16:54:20.999Z,19.73
2018-08-24T16:56:49.979Z,19.07
2018-08-24T16:59:19.174Z,19.77
2018-08-24T17:01:48.226Z,19.63
2018-08-24T17:04:17.145Z,20.47
2018-08-24T17:06:46.128Z,20.90
2018-08-24T17:09:15.581Z,19.33
2018-08-24T17:11:44.471Z,21.17
2018-08-24T17:14:13.402Z,18.43
2018-08-24T17:16:42.282Z,18.37
2018-08-24T17:19:11.526Z,18.80
2018-08-24T17:21:40.519Z,20.30
2018-08-24T17:24:09.498Z,18.87
2018-08-24T17:26:38.538Z,19.70
2018-08-24T17:29:07.738Z,20.77
2018-08-24T17:31:36.596Z,20.33
2018-08-24T17:34:05.318Z,21.43
2018-08-24T17:36:34.317Z,19.70
2018-08-24T17:39:03.677Z,20.33
2018-08-24T17:41:32.837Z,20.93
2018-08-24T17:44:01.937Z,20.60
2018-08-24T17:46:31.018Z,21.87
2018-08-24T17:49:00.037Z,22.17
2018-08-24T17:51:29.002Z,23.57
2018-08-24T17:53:57.827Z,25.13
2018-08-24T17:56:26.756Z,23.40
2018-08-24T17:58:55.639Z,25.23
2018-08-24T18:01:24.680Z,25.67
2018-08-24T18:03:53.598Z,27.20
2018-08-24T18:06:22.578Z,28.20
2018-08-24T18:08:51.877Z,27.07
2018-08-24T18:11:20.879Z,26.53
2018-08-24T18:13:49.797Z,26.13
2018-08-24T18:16:19.278Z,25.43
2018-08-24T18:18:49.001Z,27.23
2018-08-24T18:21:18.118Z,25.67
2018-08-24T18:23:47.182Z,24.93
2018-08-24T18:26:16.078Z,24.07
2018-08-24T18:28:44.979Z,24.43
2018-08-24T18:31:13.978Z,23.47
2018-08-24T18:33:42.877Z,23.47
2018-08-24T18:36:12.019Z,22.83
2018-08-24T18:38:41.278Z,22.57
2018-08-24T18:41:10.120Z,22.10
2018-08-24T18:43:39.239Z,22.63
2018-08-24T18:46:09.967Z,21.77
2018-08-24T18:48:39.136Z,21.80
2018-08-24T18:51:08.120Z,22.40
2018-08-24T18:53:37.000Z,22.10
2018-08-24T18:56:06.126Z,23.50
2018-08-24T18:58:35.068Z,23.47
2018-08-24T19:01:04.483Z,23.87
2018-08-24T19:03:33.520Z,24.27
2018-08-24T19:06:02.720Z,24.80
2018-08-24T19:08:31.721Z,25.37
2018-08-24T19:11:05.642Z,24.53
2018-08-24T19:13:34.443Z,26.10
2018-08-24T19:16:03.861Z,24.40
2018-08-24T19:18:38.081Z,24.00
2018-08-24T19:21:12.325Z,24.17
2018-08-24T19:23:41.209Z,22.70
2018-08-24T19:26:09.981Z,22.40
2018-08-24T19:28:43.978Z,22.67
2018-08-24T19:31:13.007Z,23.27
2018-08-24T19:33:42.278Z,21.93
2018-08-24T19:36:11.178Z,22.27
2018-08-24T19:38:40.118Z,22.87
2018-08-24T19:41:14.278Z,22.63
2018-08-24T19:43:44.095Z,22.63
2018-08-24T19:46:12.957Z,22.13
2018-08-24T19:48:46.998Z,24.23
2018-08-24T19:51:16.182Z,24.00
2018-08-24T19:53:45.077Z,23.63
2018-08-24T19:56:14.386Z,25.27
2018-08-24T20:11:18.883Z,23.17
2018-08-24T20:13:47.636Z,23.87
2018-08-24T20:16:21.717Z,23.83
2018-08-24T20:18:50.476Z,23.73
2018-08-24T20:21:19.397Z,22.30
2018-08-24T20:23:48.197Z,22.25
2018-08-24T20:26:16.985Z,23.03
2018-08-24T20:28:45.896Z,21.97
2018-08-24T20:31:14.958Z,21.80
2018-08-24T20:33:44.278Z,19.60
2018-08-24T20:36:13.328Z,19.67
2018-08-24T20:38:42.069Z,20.37
2018-08-24T20:41:11.166Z,19.50
2018-08-24T20:43:40.465Z,17.93
2018-08-24T20:46:09.799Z,20.70
2018-08-24T20:48:38.979Z,18.40
2018-08-24T20:51:07.659Z,18.70
2018-08-24T20:53:36.644Z,21.30
2018-08-24T20:56:05.669Z,20.73
2018-08-24T20:58:34.626Z,22.03
2018-08-24T21:01:03.718Z,21.37
2018-08-24T21:03:32.757Z,21.77
2018-08-24T21:06:01.678Z,21.30
2018-08-24T21:08:30.677Z,20.37
2018-08-24T21:10:59.737Z,21.67
2018-08-24T21:13:28.999Z,22.07
2018-08-24T21:15:58.179Z,23.03
2018-08-24T21:18:27.137Z,22.80
2018-08-24T21:20:56.358Z,23.43
2018-08-24T21:23:25.337Z,23.33
2018-08-24T21:25:54.277Z,23.70
2018-08-24T21:28:23.726Z,23.90
2018-08-24T21:30:52.819Z,25.17
2018-08-24T21:33:22.279Z,25.23
2018-08-24T21:35:51.398Z,23.00
2018-08-24T21:38:20.238Z,23.67
2018-08-24T21:48:13.079Z,23.20
2018-08-24T21:50:42.159Z,23.73
2018-08-24T21:53:11.401Z,23.73
2018-08-24T21:55:40.278Z,22.87
2018-08-24T21:58:09.163Z,21.57
2018-08-24T22:00:41.558Z,22.93
2018-08-24T22:03:11.918Z,23.37
2018-08-24T22:05:41.058Z,22.63
2018-08-24T22:08:09.977Z,23.90
2018-08-24T22:10:39.077Z,24.03
2018-08-24T22:13:07.977Z,23.30
2018-08-24T22:15:37.157Z,25.53
2018-08-24T22:18:06.378Z,24.70
2018-08-24T22:20:35.286Z,23.00
2018-08-24T22:23:04.320Z,18.33
2018-08-24T22:25:33.397Z,17.80
2018-08-24T22:28:02.218Z,18.10
2018-08-24T22:30:31.261Z,18.43
2018-08-24T22:33:00.457Z,18.23
2018-08-24T22:35:29.959Z,16.77
2018-08-24T22:37:59.057Z,17.40
2018-08-24T22:40:27.818Z,17.13
2018-08-24T22:42:56.997Z,17.70
2018-08-24T22:45:25.999Z,17.30
2018-08-24T22:47:57.265Z,18.50
2018-08-24T22:50:26.198Z,17.67
2018-08-24T22:52:55.297Z,18.77
2018-08-24T22:55:24.327Z,18.27
2018-08-24T22:57:53.337Z,19.23
2018-08-24T23:00:22.140Z,18.50
2018-08-24T23:02:51.238Z,19.37
2018-08-24T23:05:20.229Z,18.93
2018-08-24T23:07:49.321Z,19.60
2018-08-24T23:10:18.178Z,19.63
2018-08-24T23:12:47.079Z,18.27
2018-08-24T23:15:15.899Z,18.10
2018-08-24T23:17:44.819Z,17.90
2018-08-24T23:20:13.718Z,16.13
2018-08-24T23:22:42.920Z,14.07
2018-08-24T23:25:12.557Z,13.73
2018-08-24T23:27:41.638Z,14.43
2018-08-24T23:42:53.197Z,14.13
2018-08-24T23:45:22.198Z,13.03
2018-08-24T23:57:43.718Z,12.10
